Time;durP1;ratioP1;P1;durP2;ratioP2;P2;SDS_P1;SDS_P2;PMS_P1;PMS_P2;Temp;Humidity;BMP_temperature;BMP_pressure;BME280_temperature;BME280_humidity;BME280_pressure;Samples;Min_cycle;Max_cycle;Signal;HPM_P1;HPM_P2
2022/09/16 00:01:07;;;;;;;10.73;1.05;;;14.40;99.90;;;;;;5107893;23;39015;-82
2022/09/16 00:03:42;;;;;;;6.13;1.25;;;14.30;99.90;;;;;;5069137;23;46618;-82
2022/09/16 00:06:34;;;;;;;5.50;0.90;;;14.30;99.90;;;;;;4930468;29;40032;-83
2022/09/16 00:17:08;;;;;;;7.13;0.98;;;14.50;99.90;;;;;;5392918;23;20030;-82
2022/09/16 00:19:35;;;;;;;10.27;1.05;;;14.60;99.90;;;;;;5005240;23;38443;-81
2022/09/16 00:22:38;;;;;;;5.90;0.90;;;14.50;99.90;;;;;;4849395;29;37033;-81
2022/09/16 00:26:07;;;;;;;5.95;1.30;;;14.60;99.90;;;;;;5117003;23;45317;-81
2022/09/16 00:28:37;;;;;;;7.28;1.92;;;14.60;99.90;;;;;;4847539;29;48319;-81
2022/09/16 00:31:08;;;;;;;8.35;1.27;;;14.60;99.90;;;;;;4878827;29;38316;-81
2022/09/16 00:33:48;;;;;;;7.53;1.00;;;14.60;99.90;;;;;;4866710;29;49828;-81
2022/09/16 00:36:29;;;;;;;6.10;0.80;;;14.60;99.90;;;;;;4855183;29;48932;-81
2022/09/16 00:38:56;;;;;;;5.82;0.98;;;14.60;99.90;;;;;;4882243;23;37063;-80
2022/09/16 00:42:03;;;;;;;3.70;1.13;;;14.60;99.90;;;;;;4921074;29;37349;-79
2022/09/16 00:44:52;;;;;;;9.30;0.80;;;14.60;99.90;;;;;;4913164;29;46003;-81
2022/09/16 00:50:26;;;;;;;5.95;1.00;;;14.60;99.90;;;;;;5512574;23;20028;-80
2022/09/16 00:52:55;;;;;;;5.05;1.40;;;14.60;99.90;;;;;;5011288;23;38108;-81
2022/09/16 00:55:28;;;;;;;3.08;0.63;;;14.60;99.90;;;;;;4920452;28;38834;-82
2022/09/16 00:57:58;;;;;;;6.35;0.93;;;14.60;99.90;;;;;;4903305;29;38278;-82
2022/09/16 01:03:00;;;;;;;5.00;1.05;;;14.60;99.90;;;;;;5244119;23;20907;-76
2022/09/16 01:05:27;;;;;;;7.07;1.20;;;14.50;99.90;;;;;;4870842;29;46429;-78
2022/09/16 01:07:53;;;;;;;3.58;0.60;;;14.50;99.90;;;;;;4876336;29;38925;-78
2022/09/16 01:10:23;;;;;;;7.97;1.00;;;14.50;99.90;;;;;;4863716;29;37380;-78
2022/09/16 01:12:55;;;;;;;6.13;1.17;;;14.40;99.90;;;;;;4865130;29;37634;-77
2022/09/16 01:15:32;;;;;;;5.88;0.68;;;14.40;99.90;;;;;;4886616;29;41606;-78
2022/09/16 01:18:17;;;;;;;2.65;0.80;;;14.40;99.90;;;;;;4864754;29;37989;-79
2022/09/16 01:21:01;;;;;;;4.43;0.93;;;14.40;99.90;;;;;;4876211;29;48536;-79
2022/09/16 01:23:56;;;;;;;3.67;0.60;;;14.30;99.90;;;;;;4883369;29;49234;-78
2022/09/16 01:26:35;;;;;;;3.78;0.60;;;14.20;99.90;;;;;;4880588;29;39484;-78
2022/09/16 01:29:25;;;;;;;7.40;0.77;;;14.10;99.90;;;;;;4888688;29;39419;-78
2022/09/16 01:32:04;;;;;;;3.97;0.70;;;14.00;99.90;;;;;;4868289;29;38092;-79
2022/09/16 01:35:03;;;;;;;4.35;0.73;;;14.00;99.90;;;;;;4871447;29;47361;-78
2022/09/16 01:37:41;;;;;;;4.45;0.57;;;13.90;99.90;;;;;;4864529;29;47162;-78
2022/09/16 01:40:27;;;;;;;3.47;0.43;;;13.90;99.90;;;;;;4878654;29;39158;-76
2022/09/16 01:43:14;;;;;;;4.85;0.55;;;13.90;99.90;;;;;;4879429;29;38354;-78
2022/09/16 01:45:47;;;;;;;2.88;0.50;;;13.90;99.90;;;;;;4864410;29;48042;-78
2022/09/16 01:48:27;;;;;;;5.47;0.70;;;13.90;99.90;;;;;;4863691;29;39114;-79
2022/09/16 01:51:18;;;;;;;6.20;0.60;;;14.00;99.90;;;;;;4883811;29;39009;-78
2022/09/16 01:54:12;;;;;;;3.10;0.60;;;14.00;99.90;;;;;;4865666;29;48525;-77
2022/09/16 01:56:57;;;;;;;5.03;0.88;;;14.10;99.90;;;;;;4859041;29;48405;-78
2022/09/16 01:59:57;;;;;;;5.60;0.80;;;14.10;99.90;;;;;;4871834;29;38925;-78
2022/09/16 02:02:31;;;;;;;6.30;0.80;;;14.10;99.90;;;;;;4871635;29;39346;-78
2022/09/16 02:05:00;;;;;;;3.97;0.85;;;14.10;99.90;;;;;;4873193;29;39266;-78
2022/09/16 02:07:34;;;;;;;4.30;0.70;;;14.00;99.90;;;;;;4886383;29;37648;-79
2022/09/16 02:10:15;;;;;;;2.80;0.60;;;13.90;99.90;;;;;;4867307;29;38115;-78
2022/09/16 02:12:44;;;;;;;8.82;0.82;;;13.90;99.90;;;;;;4883141;29;46890;-78
2022/09/16 02:15:17;;;;;;;4.80;0.82;;;13.70;99.90;;;;;;4888056;29;37906;-78
2022/09/16 02:17:50;;;;;;;3.95;0.57;;;13.70;99.90;;;;;;4905170;29;38440;-78
2022/09/16 02:20:23;;;;;;;5.95;0.60;;;13.50;99.90;;;;;;4904346;29;39097;-78
2022/09/16 02:22:57;;;;;;;4.65;0.80;;;13.50;99.90;;;;;;4894978;29;40215;-79
2022/09/16 02:25:24;;;;;;;3.38;0.40;;;13.30;99.90;;;;;;4891225;29;38607;-79
2022/09/16 02:27:52;;;;;;;3.85;0.85;;;13.30;99.90;;;;;;4885665;29;38430;-78
2022/09/16 02:30:21;;;;;;;2.78;0.55;;;13.20;99.90;;;;;;4888085;29;39146;-79
2022/09/16 02:32:56;;;;;;;6.95;0.63;;;13.10;99.90;;;;;;4883578;29;38012;-79
2022/09/16 02:35:25;;;;;;;3.17;0.57;;;13.10;99.90;;;;;;4893422;29;37057;-79
2022/09/16 02:38:27;;;;;;;2.58;0.50;;;13.00;99.90;;;;;;4910444;29;37235;-79
2022/09/16 02:40:59;;;;;;;4.85;1.00;;;13.00;99.90;;;;;;4877131;29;47282;-79
2022/09/16 02:43:26;;;;;;;6.50;0.85;;;13.00;99.90;;;;;;4886923;29;37453;-79
2022/09/16 02:45:59;;;;;;;6.38;0.90;;;13.10;99.90;;;;;;4910126;29;39135;-80
2022/09/16 02:48:42;;;;;;;5.22;0.88;;;13.10;99.90;;;;;;4902270;29;36393;-81
2022/09/16 02:51:31;;;;;;;5.05;0.90;;;13.10;99.90;;;;;;4895005;29;38931;-80
2022/09/16 02:54:10;;;;;;;7.50;0.98;;;13.10;99.90;;;;;;4893512;29;38729;-80
2022/09/16 02:56:39;;;;;;;10.07;1.30;;;13.00;99.90;;;;;;4893894;29;48165;-79
2022/09/16 02:59:15;;;;;;;3.92;0.80;;;13.00;99.90;;;;;;4894160;29;36532;-79
2022/09/16 03:01:44;;;;;;;3.55;0.80;;;12.90;99.90;;;;;;4897073;29;39412;-79
2022/09/16 03:04:13;;;;;;;2.28;0.50;;;12.90;99.90;;;;;;4879455;29;38355;-78
2022/09/16 03:06:40;;;;;;;3.53;0.40;;;12.80;99.90;;;;;;4866495;29;37316;-79
2022/09/16 03:09:12;;;;;;;4.97;0.75;;;12.90;99.90;;;;;;4875370;29;37624;-79
2022/09/16 03:11:50;;;;;;;8.52;0.60;;;12.70;99.90;;;;;;4885406;29;39940;-79
2022/09/16 03:14:28;;;;;;;5.70;0.75;;;12.70;99.90;;;;;;4862200;29;40663;-78
2022/09/16 03:17:22;;;;;;;4.38;0.82;;;12.60;99.90;;;;;;4872747;29;37821;-79
2022/09/16 03:20:16;;;;;;;5.25;0.57;;;12.60;99.90;;;;;;4868951;29;47714;-79
2022/09/16 03:23:12;;;;;;;1.85;0.55;;;12.60;99.90;;;;;;4886932;29;48834;-79
2022/09/16 03:26:14;;;;;;;4.28;0.80;;;12.60;99.90;;;;;;4855687;29;47240;-78
2022/09/16 03:28:45;;;;;;;7.85;0.77;;;12.50;99.90;;;;;;4878954;29;48318;-80
2022/09/16 03:31:23;;;;;;;8.13;1.00;;;12.60;99.90;;;;;;4873747;29;36563;-79
2022/09/16 03:34:02;;;;;;;9.73;1.10;;;12.60;99.90;;;;;;4844310;29;40290;-81
2022/09/16 03:36:35;;;;;;;5.45;0.95;;;12.50;99.90;;;;;;4880325;29;48607;-80
2022/09/16 03:39:04;;;;;;;6.78;0.90;;;12.30;99.90;;;;;;4879946;29;38619;-79
2022/09/16 03:41:32;;;;;;;5.68;0.90;;;12.20;99.90;;;;;;4887423;29;48939;-80
2022/09/16 03:43:59;;;;;;;2.70;0.60;;;12.20;99.90;;;;;;4886398;29;39240;-79
2022/09/16 03:46:27;;;;;;;8.30;0.85;;;12.20;99.90;;;;;;4873636;29;38529;-80
2022/09/16 03:48:57;;;;;;;3.45;0.70;;;12.10;99.90;;;;;;4873102;29;37860;-80
2022/09/16 03:51:42;;;;;;;7.93;0.70;;;12.10;99.90;;;;;;4878958;29;36534;-79
2022/09/16 03:54:08;;;;;;;3.97;0.45;;;12.20;99.90;;;;;;4879978;29;37973;-81
2022/09/16 03:56:36;;;;;;;2.03;0.57;;;12.20;99.90;;;;;;4880238;29;39459;-81
2022/09/16 03:59:21;;;;;;;7.53;0.90;;;12.20;99.90;;;;;;4873305;29;38611;-84
2022/09/16 04:01:50;;;;;;;6.90;1.13;;;12.20;99.90;;;;;;4874782;29;37348;-81
2022/09/16 04:04:42;;;;;;;12.80;1.55;;;12.10;99.90;;;;;;4882683;29;38596;-82
2022/09/16 04:07:10;;;;;;;7.47;1.00;;;12.10;99.90;;;;;;4906853;29;40382;-80
2022/09/16 04:09:37;;;;;;;5.70;1.00;;;12.10;99.90;;;;;;4896835;29;38978;-80
2022/09/16 04:12:06;;;;;;;8.70;1.30;;;12.10;99.90;;;;;;4889839;29;37452;-80
2022/09/16 04:14:33;;;;;;;2.90;0.70;;;12.10;99.90;;;;;;4885422;29;38104;-79
2022/09/16 04:16:59;;;;;;;4.28;0.68;;;12.10;99.90;;;;;;4904899;29;38779;-80
2022/09/16 04:19:31;;;;;;;4.95;0.80;;;12.10;99.90;;;;;;4915929;29;38759;-81
2022/09/16 04:22:03;;;;;;;6.82;1.10;;;11.90;99.90;;;;;;4898131;29;37704;-81
2022/09/16 04:24:32;;;;;;;7.40;1.33;;;12.00;99.90;;;;;;4911508;29;50286;-82
2022/09/16 04:27:16;;;;;;;5.05;0.75;;;12.00;99.90;;;;;;4890002;29;39636;-82
2022/09/16 04:29:43;;;;;;;4.60;0.93;;;11.90;99.90;;;;;;4896307;29;47564;-81
2022/09/16 04:32:23;;;;;;;6.13;1.40;;;11.80;99.90;;;;;;4896594;29;36686;-82
2022/09/16 04:34:54;;;;;;;4.25;0.82;;;11.80;99.90;;;;;;4907947;29;39020;-81
2022/09/16 04:37:20;;;;;;;2.80;0.80;;;11.80;99.90;;;;;;4874414;29;38164;-80
2022/09/16 04:39:47;;;;;;;1.65;0.80;;;11.80;99.90;;;;;;4899303;29;38182;-82
2022/09/16 04:42:14;;;;;;;3.00;0.80;;;11.80;99.90;;;;;;4910866;29;37370;-81
2022/09/16 04:44:43;;;;;;;3.50;0.77;;;11.80;99.90;;;;;;4896986;29;37877;-82
2022/09/16 04:47:09;;;;;;;5.50;0.80;;;11.70;99.90;;;;;;4896921;23;39434;-80
2022/09/16 04:49:38;;;;;;;6.80;0.88;;;11.70;99.90;;;;;;4882159;29;37382;-80
2022/09/16 04:52:04;;;;;;;6.00;0.85;;;11.70;99.90;;;;;;4880607;29;36060;-80
2022/09/16 04:54:30;;;;;;;5.15;1.35;;;11.70;99.90;;;;;;4886531;29;39000;-80
2022/09/16 04:56:56;;;;;;;6.57;1.10;;;11.70;99.90;;;;;;4892385;29;37910;-80
2022/09/16 04:59:23;;;;;;;7.40;1.13;;;11.60;99.90;;;;;;4901001;29;38799;-80
2022/09/16 05:01:49;;;;;;;6.07;1.00;;;11.80;99.90;;;;;;4885372;29;36489;-81
2022/09/16 05:04:15;;;;;;;6.57;1.40;;;11.80;99.90;;;;;;4886314;29;38837;-81
2022/09/16 05:06:43;;;;;;;7.88;2.35;;;11.70;99.90;;;;;;4883732;29;38042;-80
2022/09/16 05:09:11;;;;;;;6.95;1.55;;;11.70;99.90;;;;;;4878323;29;37569;-80
2022/09/16 05:11:39;;;;;;;5.05;1.15;;;11.70;99.90;;;;;;4874490;29;37446;-79
2022/09/16 05:14:15;;;;;;;4.00;1.00;;;11.60;99.90;;;;;;4876187;29;39078;-80
2022/09/16 05:16:42;;;;;;;3.92;1.08;;;11.60;99.90;;;;;;4881273;29;39140;-80
2022/09/16 05:19:12;;;;;;;4.18;1.02;;;11.60;99.90;;;;;;4872161;29;37776;-78
2022/09/16 05:21:39;;;;;;;3.90;1.00;;;11.50;99.90;;;;;;4892114;29;37869;-80
2022/09/16 05:24:07;;;;;;;4.07;0.82;;;11.50;99.90;;;;;;4883694;29;37884;-80
2022/09/16 05:26:36;;;;;;;5.63;1.30;;;11.50;99.90;;;;;;4897892;29;37519;-80
2022/09/16 05:29:05;;;;;;;5.40;1.30;;;11.60;99.90;;;;;;4871019;29;36611;-80
2022/09/16 05:31:36;;;;;;;4.30;2.45;;;11.60;99.90;;;;;;4869157;29;47309;-79
2022/09/16 05:34:12;;;;;;;7.78;1.73;;;11.70;99.90;;;;;;4885221;29;38628;-79
2022/09/16 05:36:40;;;;;;;10.05;2.25;;;11.80;99.90;;;;;;4882687;29;38734;-78
2022/09/16 05:39:07;;;;;;;5.82;1.92;;;11.80;99.90;;;;;;4876078;29;38261;-79
2022/09/16 05:41:33;;;;;;;7.18;1.63;;;11.80;99.90;;;;;;4894086;29;37787;-78
2022/09/16 05:44:00;;;;;;;11.48;2.42;;;11.90;99.90;;;;;;4868060;29;39469;-78
2022/09/16 05:46:27;;;;;;;8.15;1.73;;;12.00;99.90;;;;;;4872122;29;39491;-77
2022/09/16 05:48:55;;;;;;;7.38;2.05;;;12.10;99.90;;;;;;4874278;29;38535;-79
2022/09/16 05:51:22;;;;;;;12.63;1.98;;;12.20;99.90;;;;;;4890146;29;36777;-78
2022/09/16 05:53:50;;;;;;;10.60;1.58;;;12.20;99.90;;;;;;4865396;29;38882;-77
2022/09/16 05:56:21;;;;;;;15.63;2.35;;;12.10;99.90;;;;;;4868561;29;40101;-79
2022/09/16 05:58:47;;;;;;;6.90;1.67;;;12.00;99.90;;;;;;4869523;29;38264;-79
2022/09/16 06:01:26;;;;;;;5.97;1.42;;;12.00;99.90;;;;;;4868757;29;38235;-79
2022/09/16 06:03:53;;;;;;;7.55;0.80;;;11.90;99.90;;;;;;4881827;29;38635;-78
2022/09/16 06:06:41;;;;;;;7.38;1.38;;;11.90;99.90;;;;;;4899408;29;38837;-78
2022/09/16 06:09:11;;;;;;;9.15;1.20;;;11.80;99.90;;;;;;4879979;29;38059;-78
2022/09/16 06:11:40;;;;;;;8.90;2.20;;;11.80;99.90;;;;;;4895764;29;36914;-80
2022/09/16 06:14:07;;;;;;;4.13;0.90;;;11.80;99.90;;;;;;4877564;29;39573;-79
2022/09/16 06:16:34;;;;;;;6.47;1.30;;;11.80;99.90;;;;;;4871962;29;40836;-78
2022/09/16 06:19:02;;;;;;;11.30;1.52;;;11.80;99.90;;;;;;4875663;29;39492;-76
2022/09/16 06:21:29;;;;;;;10.15;1.40;;;11.90;99.90;;;;;;4882711;29;48528;-78
2022/09/16 06:23:56;;;;;;;9.55;1.30;;;11.90;99.90;;;;;;4874473;29;38008;-78
2022/09/16 06:26:24;;;;;;;6.63;1.38;;;12.00;99.90;;;;;;4876852;29;37195;-79
2022/09/16 06:28:51;;;;;;;3.92;1.35;;;12.20;99.90;;;;;;4903988;29;38790;-77
2022/09/16 06:31:26;;;;;;;8.88;1.67;;;12.40;99.90;;;;;;4905077;29;37213;-79
2022/09/16 06:33:56;;;;;;;5.75;1.05;;;12.50;99.90;;;;;;4886235;29;37602;-79
2022/09/16 06:36:26;;;;;;;16.98;2.05;;;12.50;99.90;;;;;;4887654;29;38120;-79
2022/09/16 06:38:52;;;;;;;11.35;1.50;;;12.60;99.90;;;;;;4877592;29;37501;-78
2022/09/16 06:41:20;;;;;;;6.07;1.33;;;12.60;99.90;;;;;;4875401;29;36031;-78
2022/09/16 06:43:47;;;;;;;4.10;0.95;;;12.70;99.90;;;;;;4876894;29;37526;-79
2022/09/16 06:46:17;;;;;;;7.10;1.30;;;12.60;99.90;;;;;;4888391;29;39958;-78
2022/09/16 06:48:45;;;;;;;8.65;1.20;;;12.60;99.90;;;;;;4877640;29;37019;-78
2022/09/16 06:51:14;;;;;;;7.78;1.15;;;12.60;99.90;;;;;;4890912;29;38818;-78
2022/09/16 06:53:41;;;;;;;3.85;1.20;;;12.70;99.90;;;;;;4887207;29;39133;-78
2022/09/16 06:56:11;;;;;;;4.72;1.40;;;12.60;99.90;;;;;;4897307;29;39816;-79
2022/09/16 06:58:40;;;;;;;8.15;2.13;;;12.70;99.90;;;;;;4878613;29;38672;-78
2022/09/16 07:01:11;;;;;;;9.18;1.33;;;12.60;99.90;;;;;;4887628;29;37316;-78
2022/09/16 07:03:39;;;;;;;7.47;1.33;;;12.60;99.90;;;;;;4871635;29;37925;-78
2022/09/16 07:06:07;;;;;;;9.18;1.50;;;12.50;99.90;;;;;;4875988;29;38172;-79
2022/09/16 07:08:35;;;;;;;10.93;1.38;;;12.60;99.90;;;;;;4870851;29;38627;-77
2022/09/16 07:11:05;;;;;;;11.35;1.30;;;12.60;99.90;;;;;;4886085;29;37582;-78
2022/09/16 07:13:32;;;;;;;8.43;1.40;;;12.70;99.90;;;;;;4900153;29;48138;-77
2022/09/16 07:16:05;;;;;;;6.88;1.25;;;12.90;99.90;;;;;;4879583;29;38133;-78
2022/09/16 07:18:31;;;;;;;9.63;1.00;;;13.10;99.90;;;;;;4868284;29;48264;-77
2022/09/16 07:21:02;;;;;;;8.68;1.33;;;13.10;99.90;;;;;;4889209;29;37958;-78
2022/09/16 07:23:33;;;;;;;7.47;0.80;;;13.00;99.90;;;;;;4898222;29;48695;-78
2022/09/16 07:26:10;;;;;;;10.02;1.60;;;12.90;99.90;;;;;;4879604;29;37754;-78
2022/09/16 07:28:38;;;;;;;7.60;0.75;;;12.80;99.90;;;;;;4884752;29;46946;-76
2022/09/16 07:31:10;;;;;;;3.15;0.70;;;12.70;99.90;;;;;;4883627;29;37547;-78
2022/09/16 07:33:38;;;;;;;4.20;1.00;;;12.50;99.90;;;;;;4897935;29;39431;-78
2022/09/16 07:36:06;;;;;;;5.03;0.98;;;12.30;99.90;;;;;;4904440;29;39007;-80
2022/09/16 07:38:32;;;;;;;9.73;0.80;;;12.10;99.90;;;;;;4889512;29;37428;-82
2022/09/16 07:41:12;;;;;;;5.60;0.77;;;11.90;99.90;;;;;;4901943;29;38753;-79
2022/09/16 07:43:45;;;;;;;5.65;0.65;;;11.80;99.90;;;;;;4900007;29;47233;-80
2022/09/16 07:46:15;;;;;;;5.00;0.68;;;11.70;99.90;;;;;;4912989;29;40320;-80
2022/09/16 07:48:42;;;;;;;4.10;0.60;;;11.70;99.90;;;;;;4908485;29;37191;-81
2022/09/16 07:51:15;;;;;;;2.13;0.60;;;11.80;99.90;;;;;;4893180;29;37209;-80
2022/09/16 07:53:43;;;;;;;8.50;0.90;;;11.80;99.90;;;;;;5006714;23;40205;-80
2022/09/16 07:56:14;;;;;;;7.60;0.70;;;11.90;99.90;;;;;;4901588;29;40460;-81
2022/09/16 08:04:20;;;;;;;4.05;1.10;;;12.50;99.90;;;;;;4873015;29;20054;-79
2022/09/16 08:06:47;;;;;;;6.63;0.95;;;12.80;99.90;;;;;;5325301;23;50249;-78
2022/09/16 08:09:14;;;;;;;8.75;1.00;;;13.20;99.90;;;;;;4892381;29;38149;-79
2022/09/16 08:11:41;;;;;;;5.43;1.25;;;13.40;99.90;;;;;;4887417;29;37012;-81
2022/09/16 08:14:08;;;;;;;8.90;1.30;;;13.60;99.90;;;;;;4879389;29;37468;-79
2022/09/16 08:16:35;;;;;;;4.88;0.98;;;13.60;99.90;;;;;;4887637;29;39639;-79
2022/09/16 08:19:02;;;;;;;6.43;1.10;;;13.50;99.90;;;;;;4882544;29;37289;-80
2022/09/16 08:21:29;;;;;;;6.63;0.77;;;13.30;99.90;;;;;;4887690;29;37026;-80
2022/09/16 08:23:56;;;;;;;4.80;1.00;;;13.20;99.90;;;;;;4871663;29;38070;-79
2022/09/16 08:26:25;;;;;;;9.02;0.90;;;13.30;99.90;;;;;;4895222;29;40320;-80
2022/09/16 08:28:53;;;;;;;9.57;1.48;;;13.50;99.90;;;;;;4880151;29;37551;-79
2022/09/16 08:31:19;;;;;;;11.35;1.00;;;13.70;99.90;;;;;;4889595;29;35893;-78
2022/09/16 08:33:52;;;;;;;4.95;1.10;;;13.90;99.90;;;;;;4896164;29;39870;-78
2022/09/16 08:36:21;;;;;;;4.60;0.68;;;13.90;99.90;;;;;;4894124;29;38630;-80
2022/09/16 08:38:55;;;;;;;7.28;1.02;;;13.90;99.90;;;;;;4884139;29;38525;-75
2022/09/16 08:41:55;;;;;;;4.28;0.90;;;13.80;99.90;;;;;;4894090;29;38736;-77
2022/09/16 08:44:34;;;;;;;5.28;1.05;;;13.70;99.90;;;;;;4937754;23;38640;-80
2022/09/16 08:47:20;;;;;;;5.65;0.80;;;13.50;99.90;;;;;;5054621;23;39987;-78
2022/09/16 08:49:49;;;;;;;7.43;1.17;;;13.50;99.90;;;;;;4862607;29;47234;-77
2022/09/16 08:52:34;;;;;;;7.30;1.10;;;13.60;99.90;;;;;;4899491;29;35752;-77
2022/09/16 08:55:45;;;;;;;5.35;0.98;;;13.70;99.90;;;;;;4891091;29;38812;-80
2022/09/16 08:58:40;;;;;;;4.28;0.68;;;13.60;99.90;;;;;;4848862;29;49270;-82
2022/09/16 09:04:54;;;;;;;4.72;0.80;;;13.40;99.90;;;;;;4912688;29;41245;-82
2022/09/16 09:07:52;;;;;;;3.78;0.70;;;13.40;99.90;;;;;;4926407;23;37358;-78
2022/09/16 09:10:28;;;;;;;7.43;0.98;;;13.20;99.90;;;;;;4926088;23;37703;-79
2022/09/16 09:13:12;;;;;;;5.07;0.88;;;13.10;99.90;;;;;;5031204;23;38175;-77
2022/09/16 09:15:51;;;;;;;5.85;0.88;;;13.00;99.90;;;;;;4880815;29;47163;-80
2022/09/16 09:18:43;;;;;;;7.05;0.93;;;12.90;99.90;;;;;;4905023;29;39253;-77
2022/09/16 09:21:30;;;;;;;4.80;0.60;;;12.80;99.90;;;;;;5246476;23;39218;-79
2022/09/16 09:24:15;;;;;;;6.15;1.27;;;12.80;99.90;;;;;;4906297;29;39138;-78
2022/09/16 09:27:11;;;;;;;6.65;0.95;;;12.90;99.90;;;;;;4924521;29;50052;-79
2022/09/16 09:32:50;;;;;;;6.30;0.88;;;12.90;99.90;;;;;;5110811;23;20033;-79
2022/09/16 09:35:39;;;;;;;2.42;0.70;;;13.00;99.90;;;;;;4936161;23;39864;-78
2022/09/16 09:38:33;;;;;;;8.02;1.45;;;13.10;99.90;;;;;;4908107;29;37123;-77
2022/09/16 09:41:22;;;;;;;5.43;0.80;;;12.80;99.90;;;;;;4901823;29;38990;-80
2022/09/16 09:44:02;;;;;;;6.47;0.80;;;12.60;99.90;;;;;;4896310;29;48544;-77
2022/09/16 09:46:51;;;;;;;6.80;0.88;;;12.40;99.90;;;;;;4889734;29;50291;-79
2022/09/16 09:49:35;;;;;;;5.15;0.75;;;12.20;99.90;;;;;;4877850;29;37940;-80
2022/09/16 09:52:37;;;;;;;5.75;0.60;;;12.30;99.90;;;;;;4895362;23;40196;-79
2022/09/16 09:55:19;;;;;;;4.75;0.50;;;12.90;99.90;;;;;;4935507;23;39210;-83
2022/09/16 09:58:23;;;;;;;3.28;0.73;;;13.10;99.90;;;;;;4873348;29;38648;-79
2022/09/16 10:00:54;;;;;;;3.65;1.02;;;13.30;99.90;;;;;;4872703;29;48918;-80
2022/09/16 10:03:21;;;;;;;3.35;0.60;;;13.60;99.90;;;;;;4877267;29;38648;-82
2022/09/16 10:05:47;;;;;;;4.93;0.65;;;14.00;99.90;;;;;;4875023;29;37398;-82
2022/09/16 10:08:25;;;;;;;4.45;0.90;;;13.90;99.90;;;;;;4899633;29;38479;-80
2022/09/16 10:10:54;;;;;;;3.92;0.70;;;13.90;99.90;;;;;;4878335;29;37586;-82
2022/09/16 10:13:22;;;;;;;3.17;0.70;;;14.10;99.90;;;;;;4876610;29;38441;-82
2022/09/16 10:15:52;;;;;;;5.65;0.75;;;14.30;99.90;;;;;;4868599;29;37668;-83
2022/09/16 10:18:28;;;;;;;5.10;0.70;;;14.40;99.90;;;;;;4874966;29;37513;-83
2022/09/16 10:21:00;;;;;;;4.25;0.60;;;14.50;99.90;;;;;;4892678;29;38051;-80
2022/09/16 10:23:26;;;;;;;4.38;0.52;;;14.20;99.90;;;;;;4873488;29;38584;-81
2022/09/16 10:26:11;;;;;;;3.83;0.73;;;13.90;99.90;;;;;;4891287;29;38991;-81
2022/09/16 10:28:38;;;;;;;3.85;0.30;;;13.60;99.90;;;;;;4889671;29;48264;-77
2022/09/16 10:31:05;;;;;;;4.15;0.55;;;13.40;99.90;;;;;;4876331;29;35752;-77
2022/09/16 10:36:18;;;;;;;4.70;0.77;;;13.80;99.90;;;;;;4898049;29;20044;-75
2022/09/16 10:38:57;;;;;;;3.50;0.68;;;14.10;99.90;;;;;;4879542;29;37312;-82
2022/09/16 10:41:26;;;;;;;4.60;0.82;;;14.40;99.90;;;;;;4882063;29;38215;-82
2022/09/16 10:43:58;;;;;;;5.70;0.73;;;14.70;99.90;;;;;;4886840;29;39026;-83
2022/09/16 10:46:25;;;;;;;5.70;0.90;;;14.90;99.90;;;;;;4862201;29;38047;-81
2022/09/16 10:49:07;;;;;;;5.53;1.08;;;15.10;99.90;;;;;;4868227;29;37698;-85
2022/09/16 10:51:34;;;;;;;;;;;15.10;99.90;;;;;;4881894;29;47058;-85
2022/09/16 10:54:04;;;;;;;6.28;0.63;;;15.00;99.90;;;;;;4896522;29;38884;-83
2022/09/16 10:56:33;;;;;;;6.55;0.90;;;15.00;99.90;;;;;;4883782;29;47256;-85
2022/09/16 10:59:12;;;;;;;8.40;1.17;;;14.90;99.90;;;;;;4872874;29;40082;-84
2022/09/16 11:02:24;;;;;;;4.82;0.88;;;14.70;99.90;;;;;;4895421;29;47392;-84
2022/09/16 11:05:07;;;;;;;6.38;0.90;;;14.70;99.90;;;;;;4881164;29;48318;-85
2022/09/16 11:07:43;;;;;;;5.93;0.90;;;14.60;99.90;;;;;;4868270;29;47416;-83
2022/09/16 11:13:13;;;;;;;6.18;0.80;;;14.60;99.90;;;;;;4897314;29;20088;-85
2022/09/16 11:15:52;;;;;;;6.18;1.00;;;14.90;99.90;;;;;;4861733;29;39311;-83
2022/09/16 11:18:35;;;;;;;5.47;0.70;;;15.20;99.90;;;;;;4897854;29;39012;-83
2022/09/16 11:21:07;;;;;;;3.88;0.82;;;15.50;99.90;;;;;;4906276;29;38092;-81
2022/09/16 11:23:42;;;;;;;3.97;0.80;;;15.70;99.90;;;;;;4892812;29;47101;-82
2022/09/16 11:26:47;;;;;;;4.63;0.65;;;15.70;99.90;;;;;;4900526;29;38177;-76
2022/09/16 11:29:22;;;;;;;2.80;0.60;;;15.40;99.90;;;;;;4912245;29;39690;-79
2022/09/16 11:32:13;;;;;;;8.40;1.05;;;15.20;99.90;;;;;;4905219;29;38332;-76
2022/09/16 11:35:18;;;;;;;1.17;0.50;;;15.00;99.90;;;;;;4898954;29;48428;-77
2022/09/16 11:38:19;;;;;;;8.27;0.90;;;15.10;99.90;;;;;;4910019;29;50194;-77
2022/09/16 11:40:49;;;;;;;3.80;0.70;;;15.30;99.90;;;;;;4855600;29;47232;-78
2022/09/16 11:43:35;;;;;;;4.55;0.82;;;15.80;99.90;;;;;;4884759;29;37281;-79
2022/09/16 11:46:27;;;;;;;2.40;0.47;;;16.30;99.90;;;;;;4900048;29;37286;-78
2022/09/16 11:49:12;;;;;;;2.28;0.35;;;16.60;99.90;;;;;;4901139;29;49777;-81
2022/09/16 11:52:17;;;;;;;2.50;0.50;;;16.90;99.90;;;;;;4877411;29;47237;-81
2022/09/16 11:55:18;;;;;;;1.83;0.38;;;17.10;99.90;;;;;;4884932;29;47067;-80
2022/09/16 11:57:53;;;;;;;3.72;0.80;;;16.70;99.90;;;;;;4871824;29;47234;-78
2022/09/16 12:00:19;;;;;;;10.45;1.40;;;16.20;99.90;;;;;;4879659;29;38931;-78
2022/09/16 12:03:11;;;;;;;5.03;0.88;;;15.90;99.90;;;;;;4884745;29;37940;-78
2022/09/16 12:05:53;;;;;;;7.75;1.10;;;15.60;99.90;;;;;;4908936;29;48924;-78
2022/09/16 12:08:45;;;;;;;5.82;0.98;;;15.60;99.90;;;;;;4895644;29;37543;-79
2022/09/16 12:11:32;;;;;;;4.28;0.75;;;15.80;99.90;;;;;;4899534;29;38764;-78
2022/09/16 12:14:38;;;;;;;4.57;0.70;;;15.80;99.90;;;;;;4889533;29;38911;-78
2022/09/16 12:17:15;;;;;;;4.50;0.82;;;15.80;99.90;;;;;;4848012;29;47213;-77
2022/09/16 12:19:44;;;;;;;4.97;1.00;;;16.00;99.90;;;;;;4877840;29;36085;-79
2022/09/16 12:22:25;;;;;;;6.20;1.13;;;16.00;99.90;;;;;;4879966;29;39103;-78
2022/09/16 12:25:01;;;;;;;4.93;1.08;;;15.80;99.90;;;;;;4893519;29;39107;-77
2022/09/16 12:27:53;;;;;;;9.50;1.33;;;15.80;99.90;;;;;;4893392;29;38123;-79
2022/09/16 12:30:25;;;;;;;6.07;0.77;;;16.10;99.90;;;;;;4891317;29;36835;-81
2022/09/16 12:32:58;;;;;;;6.53;1.27;;;16.20;99.90;;;;;;4886042;29;37844;-84
2022/09/16 12:35:31;;;;;;;5.15;0.68;;;16.40;99.90;;;;;;4898543;29;39273;-83
2022/09/16 12:37:58;;;;;;;6.65;0.73;;;16.60;99.90;;;;;;4880563;29;37528;-81
2022/09/16 12:40:38;;;;;;;5.22;0.70;;;16.40;99.90;;;;;;4895240;29;38161;-87
2022/09/16 12:43:13;;;;;;;3.90;0.45;;;15.90;99.90;;;;;;4876600;29;38431;-77
2022/09/16 12:45:42;;;;;;;2.63;0.57;;;15.40;99.90;;;;;;4899052;29;39888;-77
2022/09/16 12:48:26;;;;;;;2.92;0.70;;;15.20;99.90;;;;;;4895952;29;36369;-76
2022/09/16 12:51:30;;;;;;;5.30;0.70;;;15.10;99.90;;;;;;4882016;29;37833;-78
2022/09/16 12:53:56;;;;;;;1.13;0.45;;;15.10;99.90;;;;;;4885409;29;48105;-78
2022/09/16 12:56:44;;;;;;;3.17;0.65;;;15.10;99.90;;;;;;4890144;29;38467;-77
2022/09/16 12:59:24;;;;;;;3.97;0.63;;;15.20;99.90;;;;;;4874913;29;38549;-81
2022/09/16 13:02:00;;;;;;;3.17;0.50;;;15.30;99.90;;;;;;4913029;29;37425;-83
2022/09/16 13:04:33;;;;;;;2.30;0.43;;;15.50;99.90;;;;;;4901291;29;39781;-82
2022/09/16 13:07:01;;;;;;;3.50;0.77;;;15.90;99.90;;;;;;4888209;29;20053;-77
2022/09/16 13:09:31;;;;;;;5.72;1.00;;;16.20;99.90;;;;;;4887544;29;46317;-81
2022/09/16 13:12:28;;;;;;;8.20;0.88;;;16.30;99.90;;;;;;4900914;29;38246;-78
2022/09/16 13:14:57;;;;;;;6.15;1.00;;;16.30;99.90;;;;;;4863964;29;47672;-81
2022/09/16 13:17:38;;;;;;;6.05;0.98;;;16.20;99.90;;;;;;4902394;29;39088;-81
2022/09/16 13:20:39;;;;;;;6.03;1.00;;;15.50;99.90;;;;;;4903239;29;37685;-77
2022/09/16 13:23:26;;;;;;;4.65;0.80;;;14.80;99.90;;;;;;4869486;29;36904;-77
2022/09/16 13:25:57;;;;;;;3.70;0.88;;;14.40;99.90;;;;;;4886553;29;37689;-76
2022/09/16 13:28:40;;;;;;;4.53;0.63;;;14.20;99.90;;;;;;4881578;29;37702;-77
2022/09/16 13:31:09;;;;;;;2.90;0.55;;;14.10;99.90;;;;;;4885651;29;38012;-76
2022/09/16 13:33:35;;;;;;;2.92;0.68;;;14.00;99.90;;;;;;4878256;29;35844;-77
2022/09/16 13:36:19;;;;;;;2.00;0.60;;;13.90;99.90;;;;;;4904286;29;38497;-76
2022/09/16 13:38:57;;;;;;;5.28;0.75;;;13.90;99.90;;;;;;4892339;29;48773;-77
2022/09/16 13:41:44;;;;;;;2.90;0.77;;;14.00;99.90;;;;;;4891734;29;38532;-76
2022/09/16 13:44:38;;;;;;;8.48;0.80;;;14.00;99.90;;;;;;4883940;29;36385;-77
2022/09/16 13:47:10;;;;;;;3.58;0.60;;;13.70;99.90;;;;;;4873862;29;37583;-78
2022/09/16 13:49:52;;;;;;;4.40;0.77;;;13.60;99.90;;;;;;4895743;29;38541;-76
2022/09/16 13:52:28;;;;;;;5.72;1.17;;;13.40;99.90;;;;;;4898737;29;38540;-76
2022/09/16 13:54:58;;;;;;;3.70;0.80;;;13.40;99.90;;;;;;4878555;29;36171;-77
2022/09/16 13:57:24;;;;;;;6.43;0.82;;;13.40;99.90;;;;;;4904097;29;39904;-77
2022/09/16 14:00:03;;;;;;;6.32;0.98;;;13.50;99.90;;;;;;4895488;29;38093;-77
2022/09/16 14:02:55;;;;;;;5.93;1.02;;;13.70;99.90;;;;;;4880344;29;47247;-77